Time;durP1;ratioP1;P1;durP2;ratioP2;P2;SDS_P1;SDS_P2;PMS_P1;PMS_P2;Temp;Humidity;BMP_temperature;BMP_pressure;BME280_temperature;BME280_humidity;BME280_pressure;Samples;Min_cycle;Max_cycle;Signal;HPM_P1;HPM_P2
2022/07/27 00:01:40;;;;;;;2.05;0.70;;;;;;;17.58;50.39;100129.91;5013811;28;20054;-62
2022/07/27 00:04:17;;;;;;;1.77;0.82;;;;;;;17.56;50.58;100129.19;5013844;28;20575;-62
2022/07/27 00:06:44;;;;;;;5.13;1.00;;;;;;;17.53;50.57;100129.44;5013733;28;20257;-63
2022/07/27 00:09:10;;;;;;;1.15;0.63;;;;;;;17.50;50.64;100124.38;5013405;28;20112;-63
2022/07/27 00:11:38;;;;;;;2.03;0.65;;;;;;;17.48;50.78;100130.78;5013604;28;20056;-62
2022/07/27 00:14:04;;;;;;;3.83;0.80;;;;;;;17.43;51.02;100129.31;5013567;28;20054;-62
2022/07/27 00:16:31;;;;;;;2.45;1.00;;;;;;;17.42;51.05;100132.13;5013259;28;20050;-62
2022/07/27 00:18:58;;;;;;;2.28;0.75;;;;;;;17.39;50.82;100135.88;5012910;28;20124;-61
2022/07/27 00:21:25;;;;;;;2.47;0.80;;;;;;;17.37;50.83;100136.94;5013383;28;20054;-61
2022/07/27 00:23:53;;;;;;;1.67;0.75;;;;;;;17.33;50.95;100133.69;5013441;28;20052;-63
2022/07/27 00:26:20;;;;;;;2.33;0.73;;;;;;;17.31;50.86;100133.00;5013276;28;20054;-62
2022/07/27 00:28:47;;;;;;;3.25;0.80;;;;;;;17.27;51.04;100137.69;5013217;28;20547;-62
2022/07/27 00:31:13;;;;;;;2.08;0.68;;;;;;;17.23;51.05;100136.25;5013109;28;20053;-62
2022/07/27 00:33:40;;;;;;;1.90;0.82;;;;;;;17.22;51.17;100136.34;5013047;28;20049;-62
2022/07/27 00:36:07;;;;;;;1.90;0.70;;;;;;;17.19;51.14;100134.78;5012732;28;20057;-62
2022/07/27 00:38:33;;;;;;;2.08;0.75;;;;;;;17.17;51.17;100132.28;5012708;28;20062;-61
2022/07/27 00:41:00;;;;;;;3.28;0.80;;;;;;;17.16;51.38;100135.06;5013012;28;20049;-61
2022/07/27 00:43:27;;;;;;;1.35;0.73;;;;;;;17.16;51.73;100135.06;5013000;28;20099;-62
2022/07/27 00:45:53;;;;;;;3.33;1.10;;;;;;;17.14;51.66;100131.66;4995218;28;20050;-62
2022/07/27 00:48:20;;;;;;;3.55;1.00;;;;;;;17.14;52.12;100132.50;5012493;28;20054;-62
2022/07/27 00:50:47;;;;;;;3.42;1.02;;;;;;;17.14;52.19;100132.50;5012270;28;20060;-62
2022/07/27 00:53:14;;;;;;;3.63;0.80;;;;;;;17.16;51.92;100132.38;4995038;28;20046;-61
2022/07/27 00:55:41;;;;;;;2.70;0.90;;;;;;;17.18;52.41;100135.75;5012708;28;20046;-62
2022/07/27 00:58:08;;;;;;;1.80;0.75;;;;;;;17.21;52.54;100132.00;5012665;28;20128;-62
2022/07/27 01:00:36;;;;;;;2.20;0.85;;;;;;;17.23;52.30;100130.91;5012498;28;20042;-64
2022/07/27 01:03:03;;;;;;;3.83;0.90;;;;;;;17.26;52.26;100136.00;5012419;28;20084;-62
2022/07/27 01:05:35;;;;;;;5.55;0.90;;;;;;;17.29;52.39;100130.44;5012663;28;20057;-63
2022/07/27 01:08:11;;;;;;;3.67;0.98;;;;;;;17.31;52.04;100127.66;4995872;28;20058;-63
2022/07/27 01:10:38;;;;;;;2.28;0.90;;;;;;;17.32;52.23;100127.53;5012403;28;20053;-63
2022/07/27 01:13:05;;;;;;;1.77;0.80;;;;;;;17.34;52.13;100119.41;4994750;28;20501;-62
2022/07/27 01:15:39;;;;;;;3.58;0.82;;;;;;;17.35;52.31;100125.59;5012320;28;20077;-62
2022/07/27 01:18:25;;;;;;;2.80;1.05;;;;;;;17.32;52.64;100127.53;5012086;28;20089;-62
2022/07/27 01:20:53;;;;;;;1.35;0.73;;;;;;;17.32;51.89;100116.88;4994567;28;20551;-61
2022/07/27 01:23:20;;;;;;;3.05;0.77;;;;;;;17.31;51.90;100125.00;5012274;28;20065;-62
2022/07/27 01:25:46;;;;;;;6.25;1.27;;;;;;;17.28;52.00;100123.44;5012002;28;20060;-61
2022/07/27 01:28:13;;;;;;;1.50;0.85;;;;;;;17.26;52.14;100121.84;5011871;28;20056;-62
2022/07/27 01:30:40;;;;;;;3.08;0.95;;;;;;;17.24;52.28;100124.66;5012243;28;20409;-64
2022/07/27 01:33:08;;;;;;;3.17;0.80;;;;;;;17.20;52.23;100123.19;4995042;28;20449;-61
2022/07/27 01:35:37;;;;;;;3.60;0.80;;;;;;;17.17;52.24;100118.13;4994866;28;20112;-61
2022/07/27 01:38:05;;;;;;;3.88;0.95;;;;;;;17.13;52.15;100125.50;5011976;28;20058;-62
2022/07/27 01:40:32;;;;;;;1.67;0.80;;;;;;;17.09;52.33;100121.38;5011841;28;20045;-61
2022/07/27 01:42:59;;;;;;;3.40;0.90;;;;;;;17.05;52.38;100131.41;5012087;28;20057;-63
2022/07/27 01:45:26;;;;;;;3.28;1.00;;;;;;;17.02;52.26;100118.34;5011975;28;20050;-62
2022/07/27 01:47:52;;;;;;;2.90;0.90;;;;;;;16.98;52.32;100122.19;5011763;28;20046;-61
2022/07/27 01:50:19;;;;;;;2.60;0.80;;;;;;;16.95;52.29;100119.78;5011247;28;20050;-61
2022/07/27 01:52:46;;;;;;;2.20;0.70;;;;;;;16.91;52.41;100120.97;5011716;28;20653;-61
2022/07/27 01:55:13;;;;;;;1.40;0.70;;;;;;;16.87;52.38;100114.22;5011722;28;20107;-61
2022/07/27 01:57:40;;;;;;;2.35;0.90;;;;;;;16.82;52.39;100113.72;5011803;28;20064;-62
2022/07/27 02:00:10;;;;;;;3.53;0.85;;;;;;;16.77;53.01;100122.91;5011905;28;20054;-62
2022/07/27 02:02:37;;;;;;;3.90;0.98;;;;;;;16.74;52.76;100119.66;4994359;28;20108;-63
2022/07/27 02:05:04;;;;;;;2.45;0.90;;;;;;;16.71;53.06;100112.72;4994114;28;20108;-61
2022/07/27 02:07:31;;;;;;;4.07;1.10;;;;;;;16.70;53.09;100124.34;4994117;28;20124;-63
2022/07/27 02:09:57;;;;;;;4.57;1.13;;;;;;;16.70;53.13;100126.16;5011044;28;20046;-62
2022/07/27 02:12:36;;;;;;;2.50;0.77;;;;;;;16.69;53.50;100127.97;5011303;28;20452;-62
2022/07/27 02:15:24;;;;;;;7.70;1.42;;;;;;;16.65;53.95;100123.84;5011352;28;20045;-62
2022/07/27 02:17:54;;;;;;;2.55;1.13;;;;;;;16.69;53.43;100125.31;4994141;28;20089;-62
2022/07/27 02:20:23;;;;;;;3.25;0.85;;;;;;;16.69;53.53;100114.66;5010771;28;20050;-62
2022/07/27 02:22:50;;;;;;;4.05;0.90;;;;;;;16.70;53.38;100110.22;5011514;28;20493;-62
2022/07/27 02:25:18;;;;;;;6.45;1.38;;;;;;;16.70;53.75;100113.69;5011577;28;20461;-62
2022/07/27 02:27:45;;;;;;;2.20;1.23;;;;;;;16.72;53.53;100119.75;5011339;28;20054;-62
2022/07/27 02:30:13;;;;;;;2.40;0.70;;;;;;;16.72;53.70;100117.09;5011037;28;20045;-63
2022/07/27 02:32:43;;;;;;;5.05;0.95;;;;;;;16.74;53.75;100111.66;4994099;28;20112;-61
2022/07/27 02:35:10;;;;;;;2.40;0.90;;;;;;;16.75;53.69;100113.34;5011277;28;20201;-62
2022/07/27 02:37:45;;;;;;;4.18;0.88;;;;;;;16.78;53.68;100115.75;5010995;28;20484;-62
2022/07/27 02:40:14;;;;;;;2.13;1.10;;;;;;;16.79;53.77;100120.13;5010688;28;20046;-62
2022/07/27 02:42:41;;;;;;;2.90;0.93;;;;;;;16.79;53.38;100120.97;5010989;28;20501;-61
2022/07/27 02:45:08;;;;;;;3.55;0.80;;;;;;;16.78;53.46;100119.28;5010797;28;20104;-61
2022/07/27 02:47:34;;;;;;;3.05;0.88;;;;;;;16.78;53.25;100119.28;5011064;28;20429;-63
2022/07/27 02:50:02;;;;;;;3.60;1.10;;;;;;;16.74;53.53;100117.00;5010703;28;20050;-61
2022/07/27 02:52:29;;;;;;;3.67;0.95;;;;;;;16.72;53.40;100118.91;5011047;28;20116;-62
2022/07/27 02:54:55;;;;;;;3.65;1.10;;;;;;;16.70;53.42;100129.66;4993365;28;20058;-62
2022/07/27 02:57:22;;;;;;;3.85;1.23;;;;;;;16.67;53.55;100120.09;5010948;28;20050;-62
2022/07/27 02:59:48;;;;;;;2.25;0.95;;;;;;;16.67;53.50;100121.91;5010570;28;20053;-62
2022/07/27 03:02:15;;;;;;;4.30;1.08;;;;;;;16.64;53.53;100120.31;5010409;28;20053;-63
2022/07/27 03:04:42;;;;;;;2.90;0.98;;;;;;;16.62;53.72;100122.28;5010683;28;20046;-62
2022/07/27 03:07:08;;;;;;;3.15;1.30;;;;;;;16.58;53.71;100120.81;5010611;28;20512;-61
2022/07/27 03:09:35;;;;;;;5.25;1.10;;;;;;;16.56;53.60;100120.06;5010092;28;20054;-63
2022/07/27 03:12:02;;;;;;;5.25;1.17;;;;;;;16.52;53.86;100122.13;5010455;28;20456;-62
2022/07/27 03:14:28;;;;;;;2.42;0.93;;;;;;;16.48;53.75;100127.81;5010389;28;20046;-62
2022/07/27 03:16:55;;;;;;;3.22;1.10;;;;;;;16.45;53.73;100126.19;5010960;28;20113;-62
2022/07/27 03:19:21;;;;;;;3.90;1.10;;;;;;;16.40;53.52;100125.72;5010217;28;20049;-62
2022/07/27 03:21:55;;;;;;;3.25;1.17;;;;;;;16.35;53.96;100122.56;5010578;28;20054;-62
2022/07/27 03:24:22;;;;;;;3.17;1.00;;;;;;;16.31;53.99;100119.31;5010624;28;20049;-62
2022/07/27 03:26:48;;;;;;;3.08;1.08;;;;;;;16.27;54.01;100121.31;5010469;28;20050;-61
2022/07/27 03:29:15;;;;;;;3.70;0.95;;;;;;;16.24;53.91;100116.25;5010345;28;20050;-61
2022/07/27 03:31:43;;;;;;;2.53;1.05;;;;;;;16.22;54.28;100118.16;5010553;28;20050;-61
2022/07/27 03:34:09;;;;;;;2.35;1.00;;;;;;;16.20;54.17;100117.44;5010578;28;20053;-61
2022/07/27 03:36:36;;;;;;;4.40;1.50;;;;;;;16.18;54.25;100116.69;5010287;28;20493;-62
2022/07/27 03:39:03;;;;;;;5.13;1.25;;;;;;;16.16;54.31;100123.97;4992792;28;20100;-62
2022/07/27 03:41:31;;;;;;;1.95;1.25;;;;;;;16.14;54.41;100129.38;5010094;28;20766;-61
2022/07/27 03:43:58;;;;;;;3.10;1.20;;;;;;;16.13;54.26;100129.50;5010321;28;20493;-61
2022/07/27 03:46:24;;;;;;;2.70;1.23;;;;;;;16.10;54.40;100130.56;5010416;28;20046;-61
2022/07/27 03:48:51;;;;;;;4.95;1.52;;;;;;;16.09;54.50;100128.88;5010297;28;20085;-61
2022/07/27 03:51:18;;;;;;;8.88;1.50;;;;;;;16.07;54.66;100129.97;5010357;28;20058;-62
2022/07/27 03:53:44;;;;;;;4.88;1.40;;;;;;;16.04;54.74;100128.38;5010398;28;20104;-61
2022/07/27 03:56:11;;;;;;;3.42;1.58;;;;;;;16.04;54.94;100124.88;5010041;28;20050;-61
2022/07/27 03:58:45;;;;;;;7.22;1.80;;;;;;;16.02;55.57;100130.28;5010141;28;20050;-61
2022/07/27 04:01:13;;;;;;;3.95;1.52;;;;;;;16.04;55.13;100127.53;4992639;28;20137;-62
2022/07/27 04:03:39;;;;;;;4.38;1.20;;;;;;;16.04;55.22;100135.50;4992506;28;20053;-61
2022/07/27 04:06:10;;;;;;;3.15;1.15;;;;;;;16.07;55.36;100145.88;5010142;28;20046;-61
2022/07/27 04:08:36;;;;;;;1.65;0.85;;;;;;;16.09;55.32;100131.53;5009816;28;20104;-61
2022/07/27 04:11:04;;;;;;;7.88;1.80;;;;;;;16.13;55.56;100140.13;4992627;28;20050;-62
2022/07/27 04:13:33;;;;;;;4.10;1.63;;;;;;;16.18;55.70;100134.47;5010939;28;20096;-63
2022/07/27 04:16:03;;;;;;;4.85;1.25;;;;;;;16.22;55.95;100139.41;5013499;28;20052;-63
2022/07/27 04:18:30;;;;;;;3.20;1.15;;;;;;;16.27;56.09;100136.44;5013248;28;20413;-62
2022/07/27 04:20:58;;;;;;;3.90;1.42;;;;;;;16.32;56.04;100134.28;5013238;28;20678;-61
2022/07/27 04:23:24;;;;;;;3.83;1.35;;;;;;;16.37;56.21;100134.75;4995890;28;20045;-61
2022/07/27 04:25:51;;;;;;;1.65;1.08;;;;;;;16.43;55.88;100146.75;5013147;28;20054;-62
2022/07/27 04:28:18;;;;;;;6.53;1.55;;;;;;;16.49;55.75;100140.13;5012991;28;20050;-62
2022/07/27 04:30:44;;;;;;;2.45;1.20;;;;;;;16.53;55.58;100145.06;5013372;28;20061;-61
2022/07/27 04:33:11;;;;;;;7.05;1.58;;;;;;;16.59;55.84;100145.59;5013241;28;20058;-61
2022/07/27 04:35:38;;;;;;;5.30;1.30;;;;;;;16.64;56.04;100148.75;5013143;28;20046;-61
2022/07/27 04:38:04;;;;;;;7.13;1.38;;;;;;;16.69;56.12;100157.19;5013298;28;20054;-63
2022/07/27 04:40:32;;;;;;;6.05;1.38;;;;;;;16.74;56.15;100154.19;4995594;28;20116;-62
2022/07/27 04:43:01;;;;;;;2.00;1.20;;;;;;;16.80;55.90;100159.03;4995546;28;20396;-63
2022/07/27 04:45:28;;;;;;;8.85;1.30;;;;;;;16.85;55.68;100158.69;5012822;28;20053;-62
2022/07/27 04:47:55;;;;;;;4.70;1.52;;;;;;;16.89;55.54;100155.66;5012683;28;20133;-61
2022/07/27 04:50:22;;;;;;;1.65;1.08;;;;;;;16.92;55.55;100162.56;5012504;28;20053;-63
2022/07/27 04:52:49;;;;;;;2.85;1.02;;;;;;;16.95;55.57;100154.34;4995213;28;20057;-61
2022/07/27 04:55:15;;;;;;;7.55;1.70;;;;;;;16.97;55.47;100155.06;5013026;28;20108;-62
2022/07/27 04:57:42;;;;;;;5.18;1.55;;;;;;;16.99;55.51;100158.47;5012602;28;20061;-62
2022/07/27 05:00:10;;;;;;;7.18;1.95;;;;;;;17.01;55.75;100147.72;5012360;28;20054;-61
2022/07/27 05:02:40;;;;;;;2.28;1.20;;;;;;;17.01;55.98;100151.19;5012437;28;20062;-61
2022/07/27 05:05:07;;;;;;;2.78;1.30;;;;;;;17.05;55.66;100152.69;4995121;28;20096;-61
2022/07/27 05:07:34;;;;;;;3.90;1.15;;;;;;;17.08;55.84;100156.09;4995181;28;20085;-74
2022/07/27 05:10:01;;;;;;;2.40;1.02;;;;;;;17.09;55.79;100163.09;4994783;28;20053;-62
2022/07/27 05:12:28;;;;;;;4.13;1.00;;;;;;;17.12;55.77;100163.69;5012215;28;20053;-62
2022/07/27 05:14:55;;;;;;;4.25;1.60;;;;;;;17.15;55.82;100175.88;5012273;28;20482;-61
2022/07/27 05:17:21;;;;;;;5.35;1.77;;;;;;;17.17;55.52;100172.19;5012415;28;20521;-62
2022/07/27 05:19:48;;;;;;;8.15;1.55;;;;;;;17.20;55.64;100171.09;5012068;28;20061;-62
2022/07/27 05:22:15;;;;;;;5.05;1.52;;;;;;;17.24;55.56;100183.19;5011758;28;20046;-60
2022/07/27 05:24:41;;;;;;;2.42;1.40;;;;;;;17.28;55.63;100189.94;5010651;28;20046;-62
2022/07/27 05:27:08;;;;;;;5.43;1.67;;;;;;;17.34;55.64;100177.13;5011756;28;20505;-63
2022/07/27 05:29:35;;;;;;;3.75;1.30;;;;;;;17.37;55.52;100174.19;5012111;28;20053;-61
2022/07/27 05:32:01;;;;;;;3.40;1.00;;;;;;;17.42;55.38;100180.03;4994167;28;20050;-62
2022/07/27 05:34:28;;;;;;;5.43;1.35;;;;;;;17.46;55.45;100184.16;5011767;28;20049;-62
2022/07/27 05:36:55;;;;;;;4.88;1.50;;;;;;;17.49;55.32;100186.53;5011836;28;20092;-61
2022/07/27 05:39:21;;;;;;;4.38;1.63;;;;;;;17.52;55.20;100180.97;5010967;28;20475;-61
2022/07/27 05:41:48;;;;;;;4.32;1.50;;;;;;;17.56;55.15;100187.75;5011437;28;20057;-62
2022/07/27 05:44:15;;;;;;;3.75;1.20;;;;;;;17.60;55.19;100187.53;5010151;28;20061;-62
2022/07/27 05:46:41;;;;;;;4.10;1.00;;;;;;;17.62;54.81;100188.22;5010262;28;20560;-62
2022/07/27 05:49:09;;;;;;;5.97;1.27;;;;;;;17.65;54.87;100194.13;5011201;28;20073;-62
2022/07/27 05:51:37;;;;;;;2.75;1.00;;;;;;;17.68;54.78;100201.88;4994681;28;20061;-64
2022/07/27 05:54:03;;;;;;;3.33;1.23;;;;;;;17.73;54.78;100204.19;5011702;28;20107;-62
2022/07/27 05:56:31;;;;;;;2.88;1.10;;;;;;;17.76;54.51;100200.44;5011316;28;20049;-61
2022/07/27 05:58:57;;;;;;;2.13;1.10;;;;;;;17.80;54.57;100204.53;5011419;28;20053;-61
2022/07/27 06:01:30;;;;;;;4.63;1.40;;;;;;;17.84;54.69;100206.81;5011969;28;20057;-62
2022/07/27 06:03:57;;;;;;;2.67;1.13;;;;;;;17.89;54.69;100200.28;5011920;28;20780;-63
2022/07/27 06:09:08;;;;;;;3.45;1.15;;;;;;;18.00;54.41;100210.06;5011476;28;20100;-61
2022/07/27 06:11:35;;;;;;;4.30;1.02;;;;;;;18.04;54.55;100204.38;5011302;28;20128;-61
2022/07/27 06:14:02;;;;;;;3.33;1.45;;;;;;;18.12;54.48;100218.94;5011497;28;20532;-61
2022/07/27 06:16:29;;;;;;;4.93;1.27;;;;;;;18.18;54.64;100215.75;5011049;28;20548;-61
2022/07/27 06:18:55;;;;;;;2.75;1.15;;;;;;;18.24;54.20;100212.56;5011289;28;20132;-62
2022/07/27 06:21:24;;;;;;;3.85;1.15;;;;;;;18.30;53.99;100216.53;5011205;28;20049;-62
2022/07/27 06:23:53;;;;;;;4.03;1.00;;;;;;;18.34;54.13;100215.31;5011055;28;20064;-63
2022/07/27 06:26:20;;;;;;;4.80;1.33;;;;;;;18.39;53.74;100221.13;5011174;28;20054;-62
2022/07/27 06:28:47;;;;;;;5.20;1.00;;;;;;;18.42;53.82;100209.34;4993491;28;20469;-62
2022/07/27 06:31:14;;;;;;;4.35;1.33;;;;;;;18.46;53.61;100211.66;5010681;28;20050;-63
2022/07/27 06:33:40;;;;;;;10.52;1.15;;;;;;;18.51;53.36;100221.06;5010835;28;20764;-61
2022/07/27 06:36:10;;;;;;;3.90;1.20;;;;;;;18.53;53.46;100222.63;5010881;28;20493;-60
2022/07/27 06:38:37;;;;;;;5.72;1.50;;;;;;;18.56;53.10;100218.88;4993316;28;20049;-62
2022/07/27 06:41:03;;;;;;;5.57;1.17;;;;;;;18.56;52.83;100225.06;5011081;28;20050;-61
2022/07/27 06:43:31;;;;;;;2.60;1.02;;;;;;;18.56;53.02;100225.06;5011137;28;20540;-62
2022/07/27 06:45:58;;;;;;;4.68;1.10;;;;;;;18.57;53.17;100223.22;5010769;28;20054;-62
2022/07/27 06:48:25;;;;;;;3.47;1.20;;;;;;;18.58;52.89;100219.59;5010712;28;20054;-61
2022/07/27 06:50:52;;;;;;;6.03;1.33;;;;;;;18.58;52.97;100225.75;5010687;28;20108;-62
2022/07/27 06:53:19;;;;;;;3.72;1.38;;;;;;;18.58;52.70;100228.44;5010779;28;20142;-60
2022/07/27 06:55:47;;;;;;;5.43;1.08;;;;;;;18.59;52.65;100224.81;4993486;28;20432;-63
2022/07/27 06:58:14;;;;;;;3.05;0.98;;;;;;;18.61;52.65;100224.66;4992922;28;20060;-61
2022/07/27 07:00:41;;;;;;;6.22;1.17;;;;;;;18.62;52.70;100224.53;5007712;28;20054;-61
2022/07/27 07:03:08;;;;;;;7.60;1.20;;;;;;;18.66;52.84;100226.94;5010029;28;20046;-63
2022/07/27 07:05:42;;;;;;;4.03;1.20;;;;;;;18.68;52.20;100228.50;4999170;28;20052;-62
2022/07/27 07:08:10;;;;;;;2.63;0.80;;;;;;;18.77;52.36;100229.56;4991125;28;20054;-62
2022/07/27 07:10:39;;;;;;;6.00;1.10;;;;;;;18.84;52.42;100236.06;4973701;28;20057;-61
2022/07/27 07:13:07;;;;;;;3.75;0.95;;;;;;;18.91;52.43;100227.56;4973671;28;20053;-60
2022/07/27 07:15:35;;;;;;;3.10;1.00;;;;;;;18.97;52.06;100230.53;4973610;28;20054;-63
2022/07/27 07:18:03;;;;;;;3.63;1.30;;;;;;;19.03;51.95;100226.50;4990813;28;20042;-61
2022/07/27 07:20:30;;;;;;;2.92;1.10;;;;;;;19.12;52.42;100239.09;4973312;28;20584;-62
2022/07/27 07:22:57;;;;;;;4.38;1.13;;;;;;;19.20;51.69;100232.22;4991102;28;20046;-62
2022/07/27 07:25:25;;;;;;;5.28;1.58;;;;;;;19.27;52.06;100234.25;4973730;28;20057;-61
2022/07/27 07:27:51;;;;;;;5.18;1.38;;;;;;;19.34;51.27;100237.25;4973658;28;20046;-61
2022/07/27 07:30:18;;;;;;;4.28;1.02;;;;;;;19.42;50.85;100235.72;4973516;28;20132;-61
2022/07/27 07:32:45;;;;;;;3.92;1.10;;;;;;;19.50;50.95;100233.22;4973578;28;20050;-65
2022/07/27 07:35:12;;;;;;;3.88;1.40;;;;;;;19.56;50.64;100235.38;4991069;28;20054;-61
2022/07/27 07:37:39;;;;;;;6.45;1.02;;;;;;;19.61;50.22;100229.59;4990843;28;20053;-61
2022/07/27 07:40:06;;;;;;;3.90;1.00;;;;;;;19.65;50.08;100223.88;4973367;28;20046;-61
2022/07/27 07:43:01;;;;;;;3.85;1.00;;;;;;;19.66;49.71;100222.88;4990630;28;20074;-61
2022/07/27 07:45:30;;;;;;;5.85;1.10;;;;;;;19.71;50.00;100226.97;4973522;28;20054;-61
2022/07/27 07:47:57;;;;;;;4.00;1.00;;;;;;;19.72;50.15;100226.84;4973751;28;20105;-62
2022/07/27 07:50:25;;;;;;;4.30;1.08;;;;;;;19.73;50.06;100225.84;4977391;28;20054;-76
2022/07/27 07:52:53;;;;;;;4.63;1.48;;;;;;;19.75;49.36;100217.72;4994669;28;20058;-63
2022/07/27 07:55:27;;;;;;;5.18;0.98;;;;;;;19.76;49.14;100228.25;4994220;28;20481;-61
2022/07/27 07:57:55;;;;;;;2.92;0.90;;;;;;;19.81;49.58;100233.19;4994237;28;20073;-61
2022/07/27 08:00:22;;;;;;;3.53;1.00;;;;;;;19.84;49.31;100232.09;4994601;28;20073;-61
2022/07/27 08:02:56;;;;;;;3.15;1.40;;;;;;;19.87;49.47;100229.13;4977343;28;20046;-61
2022/07/27 08:05:24;;;;;;;3.08;0.80;;;;;;;19.91;49.46;100228.72;4994537;28;20490;-61
2022/07/27 08:07:51;;;;;;;3.67;1.00;;;;;;;19.98;49.80;100234.41;4994613;28;20050;-61
2022/07/27 08:10:20;;;;;;;6.15;1.48;;;;;;;20.03;48.90;100231.28;4993671;28;20089;-61
2022/07/27 08:12:52;;;;;;;1.88;0.82;;;;;;;20.08;48.64;100237.09;4994142;28;20791;-61
2022/07/27 08:15:20;;;;;;;6.60;1.07;;;;;;;20.16;48.31;100239.94;4976762;28;20058;-61
2022/07/27 08:18:00;;;;;;;4.82;1.05;;;;;;;20.22;48.26;100243.03;4978706;28;20137;-60
2022/07/27 08:20:27;;;;;;;5.93;1.45;;;;;;;20.28;48.39;100234.44;4993708;28;20050;-61
2022/07/27 08:22:54;;;;;;;3.78;1.20;;;;;;;20.35;48.42;100238.25;4993588;28;20287;-62
2022/07/27 08:25:20;;;;;;;3.42;0.93;;;;;;;20.44;47.83;100240.06;4994088;28;20457;-62
2022/07/27 08:27:47;;;;;;;4.55;1.30;;;;;;;20.52;48.26;100236.69;4994162;28;20054;-62
2022/07/27 08:30:14;;;;;;;7.28;1.05;;;;;;;20.61;47.58;100243.03;5017911;28;20045;-62
2022/07/27 08:32:57;;;;;;;2.88;0.90;;;;;;;20.65;47.55;100248.94;4992620;28;20089;-62
2022/07/27 08:35:24;;;;;;;2.42;0.90;;;;;;;20.76;47.29;100243.47;4993330;28;20057;-61
2022/07/27 08:37:51;;;;;;;2.20;0.70;;;;;;;20.83;47.12;100238.38;4976545;28;20410;-61
2022/07/27 08:40:18;;;;;;;2.75;1.10;;;;;;;20.89;47.17;100234.31;4993098;28;20066;-61
2022/07/27 08:43:06;;;;;;;5.40;1.20;;;;;;;20.98;47.52;100243.31;4965561;28;20141;-62
2022/07/27 08:45:32;;;;;;;5.38;1.27;;;;;;;21.05;47.25;100242.56;4975864;28;20130;-62
2022/07/27 08:48:00;;;;;;;4.18;0.80;;;;;;;21.12;46.80;100242.00;4998352;28;20057;-61
2022/07/27 08:50:28;;;;;;;6.03;1.20;;;;;;;21.16;46.61;100238.06;5007456;28;20050;-62
2022/07/27 08:52:58;;;;;;;2.80;0.80;;;;;;;21.17;45.38;100242.41;4993291;28;20042;-61
2022/07/27 08:55:27;;;;;;;6.97;1.20;;;;;;;21.17;45.54;100245.09;4975671;28;20129;-63
2022/07/27 08:57:53;;;;;;;4.53;1.15;;;;;;;21.17;45.58;100248.63;4993174;28;20057;-62
2022/07/27 09:00:28;;;;;;;3.40;1.02;;;;;;;21.18;46.32;100244.97;5004128;28;20214;-62
2022/07/27 09:02:55;;;;;;;1.90;0.80;;;;;;;21.21;46.26;100241.13;5012856;28;20046;-62
2022/07/27 09:05:22;;;;;;;3.45;0.90;;;;;;;21.28;46.12;100244.09;5012678;28;20050;-63
2022/07/27 09:07:49;;;;;;;28.63;1.77;;;;;;;21.35;46.46;100243.34;5012628;28;20104;-63
2022/07/27 09:10:32;;;;;;;3.35;1.10;;;;;;;21.43;45.93;100244.44;5012087;28;20053;-62
2022/07/27 09:13:14;;;;;;;5.00;1.00;;;;;;;21.55;46.15;100245.09;5012311;28;20054;-62
2022/07/27 09:15:46;;;;;;;2.25;0.80;;;;;;;21.59;45.31;100246.50;5012440;28;20472;-64
2022/07/27 09:18:35;;;;;;;2.35;0.70;;;;;;;21.65;45.22;100253.97;4997498;28;20383;-62
2022/07/27 09:21:10;;;;;;;3.85;1.08;;;;;;;21.64;44.92;100252.25;4974930;28;20150;-62
2022/07/27 09:23:44;;;;;;;3.42;0.80;;;;;;;21.64;45.00;100246.88;4975565;28;20077;-62
2022/07/27 09:26:13;;;;;;;5.07;1.20;;;;;;;21.68;45.04;100250.13;5009838;28;20042;-63
2022/07/27 09:29:02;;;;;;;2.38;0.77;;;;;;;21.68;45.07;100242.94;5011011;28;20057;-64
2022/07/27 09:31:30;;;;;;;5.07;1.00;;;;;;;21.76;45.42;100247.59;5012333;28;20604;-61
2022/07/27 09:33:59;;;;;;;3.22;0.93;;;;;;;21.80;45.61;100249.00;4995235;28;20057;-62
2022/07/27 09:36:27;;;;;;;2.28;1.00;;;;;;;21.87;45.67;100252.72;5012129;28;20053;-62
2022/07/27 09:39:05;;;;;;;2.70;1.08;;;;;;;21.95;45.16;100254.69;4994638;28;20042;-62
2022/07/27 09:41:43;;;;;;;3.65;1.10;;;;;;;22.02;44.52;100251.41;4994608;28;20053;-63
2022/07/27 09:44:11;;;;;;;3.00;0.88;;;;;;;22.12;44.89;100249.47;4994983;28;20057;-62
2022/07/27 09:46:58;;;;;;;5.70;1.10;;;;;;;22.22;45.47;100252.09;5011986;28;20053;-61
2022/07/27 09:49:30;;;;;;;2.20;0.90;;;;;;;22.29;44.88;100253.19;5011916;28;20161;-61
2022/07/27 09:52:02;;;;;;;5.43;0.90;;;;;;;22.39;44.71;100245.09;4994549;28;20050;-62
2022/07/27 09:54:43;;;;;;;4.45;1.30;;;;;;;22.43;43.77;100238.38;5011887;28;20448;-62
2022/07/27 09:57:10;;;;;;;2.85;1.15;;;;;;;22.53;43.89;100243.69;4994385;28;20129;-60
2022/07/27 09:59:36;;;;;;;2.92;1.33;;;;;;;22.54;43.76;100248.03;5011435;28;20054;-62
2022/07/27 10:02:04;;;;;;;5.90;1.25;;;;;;;22.54;43.51;100255.25;5011342;28;20124;-63
2022/07/27 10:04:33;;;;;;;3.42;0.93;;;;;;;22.47;42.64;100247.81;5011291;28;20540;-61
2022/07/27 10:07:01;;;;;;;4.95;1.10;;;;;;;22.44;43.24;100253.50;5011603;28;20473;-64
2022/07/27 10:09:33;;;;;;;5.87;0.90;;;;;;;22.38;43.31;100252.28;4994816;28;20441;-63
2022/07/27 10:12:03;;;;;;;2.65;1.20;;;;;;;22.36;43.12;100261.47;5011338;28;20050;-64
2022/07/27 10:14:31;;;;;;;5.70;1.20;;;;;;;22.34;43.31;100250.03;5011918;28;20057;-62
2022/07/27 10:16:58;;;;;;;2.58;0.90;;;;;;;22.36;43.67;100251.56;5011343;28;20053;-62
2022/07/27 10:19:33;;;;;;;5.15;1.17;;;;;;;22.40;42.91;100260.19;5010536;28;20049;-64
2022/07/27 10:21:59;;;;;;;3.72;1.00;;;;;;;22.49;43.30;100253.88;5011454;28;20057;-61
2022/07/27 10:24:31;;;;;;;5.45;1.20;;;;;;;22.58;43.43;100254.00;5011076;28;20045;-61
2022/07/27 10:26:58;;;;;;;2.42;0.93;;;;;;;22.69;43.14;100255.59;4994296;28;20053;-62
2022/07/27 10:29:25;;;;;;;3.95;1.20;;;;;;;22.77;43.68;100258.34;5011188;28;20050;-63
2022/07/27 10:31:54;;;;;;;4.53;1.05;;;;;;;22.84;43.29;100259.41;5011050;28;20120;-62
2022/07/27 10:34:33;;;;;;;4.90;1.27;;;;;;;22.82;43.33;100271.28;5011155;28;20053;-62
2022/07/27 10:37:32;;;;;;;4.35;1.60;;;;;;;22.77;43.25;100269.91;5011433;28;20058;-62
2022/07/27 10:42:48;;;;;;;17.13;2.13;;;;;;;22.64;42.96;100281.06;5011745;28;20064;-63
2022/07/27 10:45:20;;;;;;;6.78;1.35;;;;;;;22.55;43.37;100286.47;5011317;28;20058;-62
2022/07/27 10:47:51;;;;;;;3.60;1.08;;;;;;;22.41;43.51;100283.31;4993427;28;20046;-62
2022/07/27 10:50:20;;;;;;;3.25;1.30;;;;;;;22.35;43.29;100284.75;5010979;28;20053;-62
2022/07/27 10:52:53;;;;;;;6.38;0.93;;;;;;;22.24;43.03;100277.78;4993584;28;20054;-64
2022/07/27 10:55:29;;;;;;;;;;;;;;;22.22;44.32;100284.28;5011570;28;20057;-62
2022/07/27 10:58:02;;;;;;;2.83;1.05;;;;;;;22.24;44.15;100285.81;4993181;28;19925;-62
2022/07/27 11:00:47;;;;;;;4.95;1.55;;;;;;;22.17;44.62;100274.03;5010950;28;20050;-62
2022/07/27 11:03:27;;;;;;;4.60;1.10;;;;;;;22.22;44.29;100279.78;5010625;28;20065;-61
2022/07/27 11:05:55;;;;;;;3.03;1.00;;;;;;;22.28;44.61;100280.16;4993512;28;20076;-62
2022/07/27 11:08:43;;;;;;;2.83;0.95;;;;;;;22.36;44.08;100274.88;4996166;28;20480;-63
2022/07/27 11:11:21;;;;;;;5.50;1.10;;;;;;;22.46;44.46;100282.88;4993914;28;20508;-61
2022/07/27 11:13:50;;;;;;;3.97;1.17;;;;;;;22.63;44.02;100278.50;5010874;28;20050;-64
2022/07/27 11:16:18;;;;;;;3.47;1.10;;;;;;;22.87;44.55;100280.56;4993004;28;20441;-62
2022/07/27 11:19:02;;;;;;;3.33;0.90;;;;;;;23.30;45.53;100275.31;5010786;28;20050;-62
2022/07/27 11:21:33;;;;;;;5.93;1.08;;;;;;;23.81;44.02;100277.28;5010649;28;20586;-62
2022/07/27 11:24:11;;;;;;;1.58;0.77;;;;;;;24.32;42.90;100270.25;5012457;28;20050;-63
2022/07/27 11:26:41;;;;;;;2.38;0.70;;;;;;;24.79;42.66;100267.94;5015166;28;20108;-62
2022/07/27 11:29:10;;;;;;;2.10;0.90;;;;;;;25.26;42.93;100260.16;5014739;28;20061;-62
2022/07/27 11:31:39;;;;;;;2.50;0.90;;;;;;;25.78;41.22;100271.47;4997339;28;20074;-63
2022/07/27 11:34:31;;;;;;;2.50;0.95;;;;;;;26.24;39.35;100263.47;4999765;28;20776;-61
2022/07/27 11:37:00;;;;;;;4.45;1.00;;;;;;;26.59;39.75;100268.50;4997378;28;20049;-62
2022/07/27 11:39:30;;;;;;;2.22;0.63;;;;;;;26.85;38.80;100256.47;5014792;28;20052;-61